sensor_id;sensor_type;location;lat;lon;timestamp;P1;durP1;ratioP1;P2;durP2;ratioP2
79373;SDS011;68844;53.128;17.958;2023-04-06T00:02:22;61.10;;;28.90;;
79373;SDS011;68844;53.128;17.958;2023-04-06T00:04:50;67.50;;;32.80;;
79373;SDS011;68844;53.128;17.958;2023-04-06T00:07:17;68.90;;;31.30;;
79373;SDS011;68844;53.128;17.958;2023-04-06T00:09:45;73.40;;;32.70;;
79373;SDS011;68844;53.128;17.958;2023-04-06T00:12:12;78.20;;;32.80;;
79373;SDS011;68844;53.128;17.958;2023-04-06T00:14:39;77.00;;;32.50;;
79373;SDS011;68844;53.128;17.958;2023-04-06T00:17:07;65.40;;;29.20;;
79373;SDS011;68844;53.128;17.958;2023-04-06T00:19:35;77.00;;;34.30;;
79373;SDS011;68844;53.128;17.958;2023-04-06T00:22:02;72.80;;;32.50;;
79373;SDS011;68844;53.128;17.958;2023-04-06T00:24:29;66.80;;;30.70;;
79373;SDS011;68844;53.128;17.958;2023-04-06T00:26:57;64.60;;;30.80;;
79373;SDS011;68844;53.128;17.958;2023-04-06T00:29:24;67.30;;;31.20;;
79373;SDS011;68844;53.128;17.958;2023-04-06T00:31:52;71.70;;;29.30;;
79373;SDS011;68844;53.128;17.958;2023-04-06T00:34:20;65.80;;;29.40;;
79373;SDS011;68844;53.128;17.958;2023-04-06T00:36:48;74.10;;;30.90;;
79373;SDS011;68844;53.128;17.958;2023-04-06T00:39:15;77.60;;;32.20;;
79373;SDS011;68844;53.128;17.958;2023-04-06T00:41:49;73.40;;;30.90;;
79373;SDS011;68844;53.128;17.958;2023-04-06T00:44:19;57.70;;;26.60;;
79373;SDS011;68844;53.128;17.958;2023-04-06T00:46:47;63.30;;;27.90;;
79373;SDS011;68844;53.128;17.958;2023-04-06T00:49:14;62.00;;;27.00;;
79373;SDS011;68844;53.128;17.958;2023-04-06T00:51:42;60.70;;;26.90;;
79373;SDS011;68844;53.128;17.958;2023-04-06T00:54:09;64.40;;;25.60;;
79373;SDS011;68844;53.128;17.958;2023-04-06T00:56:37;55.20;;;25.60;;
79373;SDS011;68844;53.128;17.958;2023-04-06T00:59:04;58.30;;;26.80;;
79373;SDS011;68844;53.128;17.958;2023-04-06T01:01:32;64.00;;;29.70;;
79373;SDS011;68844;53.128;17.958;2023-04-06T01:04:02;64.60;;;26.40;;
79373;SDS011;68844;53.128;17.958;2023-04-06T01:06:32;57.70;;;25.30;;
79373;SDS011;68844;53.128;17.958;2023-04-06T01:09:01;60.00;;;25.80;;
79373;SDS011;68844;53.128;17.958;2023-04-06T01:11:29;58.20;;;24.60;;
79373;SDS011;68844;53.128;17.958;2023-04-06T01:13:57;61.50;;;26.10;;
79373;SDS011;68844;53.128;17.958;2023-04-06T01:19:08;52.30;;;22.70;;
79373;SDS011;68844;53.128;17.958;2023-04-06T01:21:38;62.00;;;25.30;;
79373;SDS011;68844;53.128;17.958;2023-04-06T01:24:31;62.90;;;26.80;;
79373;SDS011;68844;53.128;17.958;2023-04-06T01:27:24;59.00;;;25.50;;
79373;SDS011;68844;53.128;17.958;2023-04-06T01:30:06;60.40;;;24.80;;
79373;SDS011;68844;53.128;17.958;2023-04-06T01:32:47;61.40;;;23.50;;
79373;SDS011;68844;53.128;17.958;2023-04-06T01:37:50;53.40;;;23.00;;
79373;SDS011;68844;53.128;17.958;2023-04-06T01:40:23;57.10;;;23.80;;
79373;SDS011;68844;53.128;17.958;2023-04-06T01:42:51;50.90;;;22.80;;
79373;SDS011;68844;53.128;17.958;2023-04-06T01:45:25;54.20;;;23.00;;
79373;SDS011;68844;53.128;17.958;2023-04-06T01:47:53;60.10;;;24.90;;
79373;SDS011;68844;53.128;17.958;2023-04-06T01:50:23;55.30;;;23.50;;
79373;SDS011;68844;53.128;17.958;2023-04-06T01:52:51;64.30;;;27.00;;
79373;SDS011;68844;53.128;17.958;2023-04-06T01:55:18;49.70;;;23.80;;
79373;SDS011;68844;53.128;17.958;2023-04-06T01:58:03;53.10;;;22.40;;
79373;SDS011;68844;53.128;17.958;2023-04-06T02:00:34;55.80;;;22.90;;
79373;SDS011;68844;53.128;17.958;2023-04-06T02:03:02;55.60;;;22.90;;
79373;SDS011;68844;53.128;17.958;2023-04-06T02:05:29;51.60;;;22.70;;
79373;SDS011;68844;53.128;17.958;2023-04-06T02:07:58;50.90;;;22.20;;
79373;SDS011;68844;53.128;17.958;2023-04-06T02:10:32;44.30;;;20.20;;
79373;SDS011;68844;53.128;17.958;2023-04-06T02:13:02;52.20;;;23.10;;
79373;SDS011;68844;53.128;17.958;2023-04-06T02:15:30;55.10;;;24.10;;
79373;SDS011;68844;53.128;17.958;2023-04-06T02:17:58;50.10;;;20.90;;
79373;SDS011;68844;53.128;17.958;2023-04-06T02:20:27;51.00;;;19.90;;
79373;SDS011;68844;53.128;17.958;2023-04-06T02:22:56;42.90;;;19.80;;
79373;SDS011;68844;53.128;17.958;2023-04-06T02:25:26;51.50;;;20.40;;
79373;SDS011;68844;53.128;17.958;2023-04-06T02:27:53;53.00;;;22.70;;
79373;SDS011;68844;53.128;17.958;2023-04-06T02:30:21;49.40;;;21.80;;
79373;SDS011;68844;53.128;17.958;2023-04-06T02:32:49;46.40;;;21.80;;
79373;SDS011;68844;53.128;17.958;2023-04-06T02:35:17;48.20;;;22.10;;
79373;SDS011;68844;53.128;17.958;2023-04-06T02:37:47;48.40;;;23.20;;
79373;SDS011;68844;53.128;17.958;2023-04-06T02:40:14;48.30;;;20.30;;
79373;SDS011;68844;53.128;17.958;2023-04-06T02:42:41;48.70;;;20.40;;
79373;SDS011;68844;53.128;17.958;2023-04-06T02:45:08;43.00;;;19.40;;
79373;SDS011;68844;53.128;17.958;2023-04-06T02:47:39;40.30;;;20.00;;
79373;SDS011;68844;53.128;17.958;2023-04-06T02:50:07;50.40;;;23.20;;
79373;SDS011;68844;53.128;17.958;2023-04-06T02:52:36;56.40;;;23.90;;
79373;SDS011;68844;53.128;17.958;2023-04-06T02:55:04;49.90;;;23.30;;
79373;SDS011;68844;53.128;17.958;2023-04-06T02:57:31;42.00;;;21.90;;
79373;SDS011;68844;53.128;17.958;2023-04-06T02:59:59;45.40;;;20.20;;
79373;SDS011;68844;53.128;17.958;2023-04-06T03:02:33;48.80;;;20.50;;
79373;SDS011;68844;53.128;17.958;2023-04-06T03:05:06;48.40;;;22.00;;
79373;SDS011;68844;53.128;17.958;2023-04-06T03:07:37;48.40;;;21.90;;
79373;SDS011;68844;53.128;17.958;2023-04-06T03:10:05;48.00;;;21.80;;
79373;SDS011;68844;53.128;17.958;2023-04-06T03:12:32;55.50;;;25.00;;
79373;SDS011;68844;53.128;17.958;2023-04-06T03:15:21;51.30;;;25.40;;
79373;SDS011;68844;53.128;17.958;2023-04-06T03:17:51;56.60;;;24.10;;
79373;SDS011;68844;53.128;17.958;2023-04-06T03:20:37;45.70;;;22.30;;
79373;SDS011;68844;53.128;17.958;2023-04-06T03:23:05;51.00;;;24.00;;
79373;SDS011;68844;53.128;17.958;2023-04-06T03:25:35;51.90;;;24.10;;
79373;SDS011;68844;53.128;17.958;2023-04-06T03:28:04;52.60;;;23.50;;
79373;SDS011;68844;53.128;17.958;2023-04-06T03:30:33;49.30;;;22.20;;
79373;SDS011;68844;53.128;17.958;2023-04-06T03:33:01;55.50;;;24.60;;
79373;SDS011;68844;53.128;17.958;2023-04-06T03:37:57;49.10;;;23.00;;
79373;SDS011;68844;53.128;17.958;2023-04-06T03:40:25;49.10;;;23.80;;
79373;SDS011;68844;53.128;17.958;2023-04-06T03:42:52;55.80;;;24.80;;
79373;SDS011;68844;53.128;17.958;2023-04-06T03:45:19;58.00;;;24.90;;
79373;SDS011;68844;53.128;17.958;2023-04-06T03:47:49;55.00;;;23.10;;
79373;SDS011;68844;53.128;17.958;2023-04-06T03:50:17;57.90;;;25.00;;
79373;SDS011;68844;53.128;17.958;2023-04-06T03:52:44;49.70;;;22.80;;
79373;SDS011;68844;53.128;17.958;2023-04-06T03:55:12;59.40;;;26.30;;
79373;SDS011;68844;53.128;17.958;2023-04-06T03:57:39;50.50;;;23.70;;
79373;SDS011;68844;53.128;17.958;2023-04-06T04:00:07;45.60;;;22.40;;
79373;SDS011;68844;53.128;17.958;2023-04-06T04:02:41;53.30;;;22.90;;
79373;SDS011;68844;53.128;17.958;2023-04-06T04:05:09;53.50;;;22.80;;
79373;SDS011;68844;53.128;17.958;2023-04-06T04:07:37;46.00;;;23.90;;
79373;SDS011;68844;53.128;17.958;2023-04-06T04:10:05;53.00;;;24.60;;
79373;SDS011;68844;53.128;17.958;2023-04-06T04:12:33;51.00;;;23.90;;
79373;SDS011;68844;53.128;17.958;2023-04-06T04:15:00;46.10;;;23.10;;
79373;SDS011;68844;53.128;17.958;2023-04-06T04:17:27;43.40;;;21.90;;
79373;SDS011;68844;53.128;17.958;2023-04-06T04:19:55;48.30;;;22.60;;
79373;SDS011;68844;53.128;17.958;2023-04-06T04:22:22;40.70;;;21.50;;
79373;SDS011;68844;53.128;17.958;2023-04-06T04:24:49;48.10;;;23.10;;
79373;SDS011;68844;53.128;17.958;2023-04-06T04:27:16;48.30;;;23.60;;
79373;SDS011;68844;53.128;17.958;2023-04-06T04:29:44;46.20;;;22.20;;
79373;SDS011;68844;53.128;17.958;2023-04-06T04:32:11;50.90;;;23.40;;
79373;SDS011;68844;53.128;17.958;2023-04-06T04:34:39;53.60;;;24.60;;
79373;SDS011;68844;53.128;17.958;2023-04-06T04:37:12;50.50;;;22.50;;
79373;SDS011;68844;53.128;17.958;2023-04-06T04:39:47;44.40;;;21.20;;
79373;SDS011;68844;53.128;17.958;2023-04-06T04:42:14;45.90;;;22.50;;
79373;SDS011;68844;53.128;17.958;2023-04-06T04:44:46;48.80;;;25.10;;
79373;SDS011;68844;53.128;17.958;2023-04-06T04:47:14;52.90;;;24.90;;
79373;SDS011;68844;53.128;17.958;2023-04-06T04:49:45;51.30;;;22.30;;
79373;SDS011;68844;53.128;17.958;2023-04-06T04:52:14;53.00;;;23.70;;
79373;SDS011;68844;53.128;17.958;2023-04-06T04:54:52;49.90;;;26.50;;
79373;SDS011;68844;53.128;17.958;2023-04-06T04:57:24;50.70;;;23.00;;
79373;SDS011;68844;53.128;17.958;2023-04-06T04:59:51;53.50;;;25.40;;
79373;SDS011;68844;53.128;17.958;2023-04-06T05:02:19;59.80;;;26.70;;
79373;SDS011;68844;53.128;17.958;2023-04-06T05:05:09;58.00;;;26.80;;
79373;SDS011;68844;53.128;17.958;2023-04-06T05:07:36;62.10;;;29.70;;
79373;SDS011;68844;53.128;17.958;2023-04-06T05:10:05;60.00;;;30.80;;
79373;SDS011;68844;53.128;17.958;2023-04-06T05:12:37;60.00;;;29.20;;
79373;SDS011;68844;53.128;17.958;2023-04-06T05:15:07;61.30;;;31.80;;
79373;SDS011;68844;53.128;17.958;2023-04-06T05:17:35;71.50;;;33.30;;
79373;SDS011;68844;53.128;17.958;2023-04-06T05:20:03;64.00;;;30.20;;
79373;SDS011;68844;53.128;17.958;2023-04-06T05:22:34;67.30;;;30.80;;
79373;SDS011;68844;53.128;17.958;2023-04-06T05:25:08;64.50;;;29.50;;
79373;SDS011;68844;53.128;17.958;2023-04-06T05:27:35;60.40;;;28.60;;
79373;SDS011;68844;53.128;17.958;2023-04-06T05:30:07;61.20;;;28.80;;
79373;SDS011;68844;53.128;17.958;2023-04-06T05:32:39;55.90;;;28.70;;
79373;SDS011;68844;53.128;17.958;2023-04-06T05:35:07;40.20;;;19.20;;
79373;SDS011;68844;53.128;17.958;2023-04-06T05:37:34;46.00;;;21.20;;
79373;SDS011;68844;53.128;17.958;2023-04-06T05:40:03;41.30;;;21.10;;
79373;SDS011;68844;53.128;17.958;2023-04-06T05:42:37;42.30;;;21.10;;
79373;SDS011;68844;53.128;17.958;2023-04-06T05:45:06;37.10;;;18.60;;
79373;SDS011;68844;53.128;17.958;2023-04-06T05:47:34;32.70;;;18.60;;
79373;SDS011;68844;53.128;17.958;2023-04-06T05:50:08;37.60;;;18.50;;
79373;SDS011;68844;53.128;17.958;2023-04-06T05:52:38;31.60;;;15.70;;
79373;SDS011;68844;53.128;17.958;2023-04-06T05:55:05;27.40;;;14.90;;
79373;SDS011;68844;53.128;17.958;2023-04-06T05:57:33;41.00;;;19.00;;
79373;SDS011;68844;53.128;17.958;2023-04-06T06:00:01;39.70;;;17.30;;
79373;SDS011;68844;53.128;17.958;2023-04-06T06:02:39;36.80;;;17.40;;
79373;SDS011;68844;53.128;17.958;2023-04-06T06:05:07;15.50;;;6.60;;
79373;SDS011;68844;53.128;17.958;2023-04-06T06:07:35;28.20;;;15.50;;
79373;SDS011;68844;53.128;17.958;2023-04-06T06:10:03;34.80;;;18.90;;
79373;SDS011;68844;53.128;17.958;2023-04-06T06:12:33;30.80;;;17.50;;
79373;SDS011;68844;53.128;17.958;2023-04-06T06:15:00;36.70;;;18.30;;
79373;SDS011;68844;53.128;17.958;2023-04-06T06:17:28;35.30;;;17.60;;
79373;SDS011;68844;53.128;17.958;2023-04-06T06:19:56;43.60;;;19.30;;
79373;SDS011;68844;53.128;17.958;2023-04-06T06:22:23;39.80;;;18.50;;
79373;SDS011;68844;53.128;17.958;2023-04-06T06:24:50;33.10;;;16.00;;
79373;SDS011;68844;53.128;17.958;2023-04-06T06:29:48;37.60;;;17.90;;
79373;SDS011;68844;53.128;17.958;2023-04-06T06:32:17;32.90;;;16.20;;
79373;SDS011;68844;53.128;17.958;2023-04-06T06:34:45;28.10;;;14.90;;
79373;SDS011;68844;53.128;17.958;2023-04-06T06:37:12;19.40;;;11.40;;
79373;SDS011;68844;53.128;17.958;2023-04-06T06:39:41;33.80;;;17.40;;
79373;SDS011;68844;53.128;17.958;2023-04-06T06:42:09;33.70;;;18.20;;
79373;SDS011;68844;53.128;17.958;2023-04-06T06:44:47;37.10;;;18.60;;
79373;SDS011;68844;53.128;17.958;2023-04-06T06:47:14;30.70;;;16.20;;
79373;SDS011;68844;53.128;17.958;2023-04-06T06:49:42;17.50;;;9.60;;
79373;SDS011;68844;53.128;17.958;2023-04-06T06:52:09;38.00;;;17.10;;
79373;SDS011;68844;53.128;17.958;2023-04-06T06:54:37;41.30;;;21.00;;
79373;SDS011;68844;53.128;17.958;2023-04-06T06:57:04;36.00;;;19.80;;
79373;SDS011;68844;53.128;17.958;2023-04-06T06:59:32;38.50;;;21.10;;
79373;SDS011;68844;53.128;17.958;2023-04-06T07:02:00;36.80;;;19.70;;
79373;SDS011;68844;53.128;17.958;2023-04-06T07:04:27;34.80;;;19.80;;
79373;SDS011;68844;53.128;17.958;2023-04-06T07:06:54;34.40;;;17.80;;
79373;SDS011;68844;53.128;17.958;2023-04-06T07:09:22;33.00;;;19.00;;
79373;SDS011;68844;53.128;17.958;2023-04-06T07:11:52;27.10;;;14.70;;
79373;SDS011;68844;53.128;17.958;2023-04-06T07:14:20;28.90;;;17.00;;
79373;SDS011;68844;53.128;17.958;2023-04-06T07:16:50;34.00;;;16.40;;
79373;SDS011;68844;53.128;17.958;2023-04-06T07:19:19;22.90;;;11.80;;
79373;SDS011;68844;53.128;17.958;2023-04-06T07:21:49;29.80;;;16.90;;
79373;SDS011;68844;53.128;17.958;2023-04-06T07:24:17;27.30;;;14.90;;
79373;SDS011;68844;53.128;17.958;2023-04-06T07:26:47;22.40;;;11.40;;
79373;SDS011;68844;53.128;17.958;2023-04-06T07:29:16;23.30;;;13.30;;
79373;SDS011;68844;53.128;17.958;2023-04-06T07:31:45;17.10;;;11.00;;
79373;SDS011;68844;53.128;17.958;2023-04-06T07:34:17;22.20;;;12.70;;
79373;SDS011;68844;53.128;17.958;2023-04-06T07:36:47;12.80;;;8.00;;
79373;SDS011;68844;53.128;17.958;2023-04-06T07:39:17;18.00;;;9.70;;
79373;SDS011;68844;53.128;17.958;2023-04-06T07:41:47;22.30;;;13.10;;
79373;SDS011;68844;53.128;17.958;2023-04-06T07:44:15;13.10;;;8.60;;
79373;SDS011;68844;53.128;17.958;2023-04-06T07:46:44;15.30;;;9.00;;
79373;SDS011;68844;53.128;17.958;2023-04-06T07:49:13;17.40;;;9.80;;
79373;SDS011;68844;53.128;17.958;2023-04-06T07:51:44;14.10;;;9.20;;
79373;SDS011;68844;53.128;17.958;2023-04-06T07:54:14;15.40;;;10.60;;
79373;SDS011;68844;53.128;17.958;2023-04-06T07:56:42;12.60;;;8.50;;
79373;SDS011;68844;53.128;17.958;2023-04-06T07:59:11;12.20;;;7.50;;
79373;SDS011;68844;53.128;17.958;2023-04-06T08:01:41;14.70;;;9.30;;
79373;SDS011;68844;53.128;17.958;2023-04-06T08:04:09;10.40;;;6.30;;
79373;SDS011;68844;53.128;17.958;2023-04-06T08:16:18;12.70;;;6.20;;
79373;SDS011;68844;53.128;17.958;2023-04-06T08:18:45;10.40;;;5.80;;
79373;SDS011;68844;53.128;17.958;2023-04-06T08:21:11;6.80;;;4.90;;
79373;SDS011;68844;53.128;17.958;2023-04-06T08:23:38;6.90;;;4.30;;
79373;SDS011;68844;53.128;17.958;2023-04-06T08:26:05;3.60;;;2.30;;
79373;SDS011;68844;53.128;17.958;2023-04-06T08:28:32;4.10;;;2.20;;
79373;SDS011;68844;53.128;17.958;2023-04-06T08:31:04;4.60;;;2.50;;
79373;SDS011;68844;53.128;17.958;2023-04-06T08:33:33;4.00;;;2.10;;
79373;SDS011;68844;53.128;17.958;2023-04-06T08:36:06;3.80;;;2.20;;
79373;SDS011;68844;53.128;17.958;2023-04-06T08:38:34;3.40;;;2.60;;
79373;SDS011;68844;53.128;17.958;2023-04-06T08:41:06;2.90;;;2.00;;
79373;SDS011;68844;53.128;17.958;2023-04-06T08:43:36;6.60;;;2.70;;
79373;SDS011;68844;53.128;17.958;2023-04-06T08:46:09;3.40;;;2.00;;
79373;SDS011;68844;53.128;17.958;2023-04-06T08:51:08;3.80;;;2.20;;
79373;SDS011;68844;53.128;17.958;2023-04-06T08:53:36;4.10;;;1.90;;
79373;SDS011;68844;53.128;17.958;2023-04-06T08:56:03;2.40;;;1.50;;
79373;SDS011;68844;53.128;17.958;2023-04-06T08:58:40;3.60;;;2.20;;
79373;SDS011;68844;53.128;17.958;2023-04-06T09:01:08;2.60;;;1.40;;
79373;SDS011;68844;53.128;17.958;2023-04-06T09:03:38;4.00;;;2.60;;
79373;SDS011;68844;53.128;17.958;2023-04-06T09:06:06;4.00;;;2.80;;
79373;SDS011;68844;53.128;17.958;2023-04-06T09:08:34;3.10;;;2.20;;
79373;SDS011;68844;53.128;17.958;2023-04-06T09:11:02;4.90;;;2.20;;
79373;SDS011;68844;53.128;17.958;2023-04-06T09:13:30;3.40;;;2.60;;
79373;SDS011;68844;53.128;17.958;2023-04-06T09:15:58;4.20;;;2.30;;
79373;SDS011;68844;53.128;17.958;2023-04-06T09:18:29;4.00;;;2.50;;
79373;SDS011;68844;53.128;17.958;2023-04-06T09:20:58;4.50;;;2.60;;
79373;SDS011;68844;53.128;17.958;2023-04-06T09:23:29;3.60;;;2.50;;
79373;SDS011;68844;53.128;17.958;2023-04-06T09:26:06;3.70;;;2.90;;
79373;SDS011;68844;53.128;17.958;2023-04-06T09:31:31;3.50;;;3.10;;
79373;SDS011;68844;53.128;17.958;2023-04-06T09:34:01;3.40;;;1.90;;
79373;SDS011;68844;53.128;17.958;2023-04-06T09:36:31;5.20;;;4.40;;
79373;SDS011;68844;53.128;17.958;2023-04-06T09:39:00;2.80;;;2.20;;
79373;SDS011;68844;53.128;17.958;2023-04-06T09:41:29;3.90;;;2.80;;
79373;SDS011;68844;53.128;17.958;2023-04-06T09:44:07;4.00;;;2.90;;
79373;SDS011;68844;53.128;17.958;2023-04-06T09:46:38;4.00;;;2.90;;
79373;SDS011;68844;53.128;17.958;2023-04-06T09:49:07;2.40;;;1.70;;
79373;SDS011;68844;53.128;17.958;2023-04-06T09:51:38;4.10;;;2.80;;
79373;SDS011;68844;53.128;17.958;2023-04-06T09:54:07;5.10;;;2.30;;
79373;SDS011;68844;53.128;17.958;2023-04-06T09:56:39;3.80;;;2.50;;
79373;SDS011;68844;53.128;17.958;2023-04-06T09:59:09;3.10;;;2.40;;
79373;SDS011;68844;53.128;17.958;2023-04-06T10:01:40;4.10;;;2.60;;
79373;SDS011;68844;53.128;17.958;2023-04-06T10:06:52;4.20;;;2.60;;
79373;SDS011;68844;53.128;17.958;2023-04-06T10:09:20;4.00;;;3.00;;
79373;SDS011;68844;53.128;17.958;2023-04-06T10:11:51;4.20;;;2.60;;
79373;SDS011;68844;53.128;17.958;2023-04-06T10:14:18;4.50;;;2.00;;
79373;SDS011;68844;53.128;17.958;2023-04-06T10:16:45;3.10;;;2.10;;
79373;SDS011;68844;53.128;17.958;2023-04-06T10:19:25;3.60;;;3.20;;
79373;SDS011;68844;53.128;17.958;2023-04-06T10:21:55;7.10;;;4.00;;
79373;SDS011;68844;53.128;17.958;2023-04-06T10:24:25;2.70;;;2.20;;
79373;SDS011;68844;53.128;17.958;2023-04-06T10:26:59;4.40;;;3.20;;
79373;SDS011;68844;53.128;17.958;2023-04-06T10:29:27;3.80;;;2.80;;
79373;SDS011;68844;53.128;17.958;2023-04-06T10:31:54;2.80;;;2.40;;
79373;SDS011;68844;53.128;17.958;2023-04-06T10:34:21;3.10;;;2.10;;
79373;SDS011;68844;53.128;17.958;2023-04-06T10:36:49;3.70;;;2.80;;
79373;SDS011;68844;53.128;17.958;2023-04-06T10:39:16;3.40;;;2.70;;
79373;SDS011;68844;53.128;17.958;2023-04-06T10:41:52;5.60;;;3.20;;
79373;SDS011;68844;53.128;17.958;2023-04-06T10:44:22;4.00;;;2.70;;
79373;SDS011;68844;53.128;17.958;2023-04-06T10:46:57;3.30;;;2.30;;
79373;SDS011;68844;53.128;17.958;2023-04-06T10:49:26;6.70;;;3.10;;
79373;SDS011;68844;53.128;17.958;2023-04-06T10:51:54;2.80;;;2.10;;
79373;SDS011;68844;53.128;17.958;2023-04-06T10:54:22;2.50;;;1.80;;
79373;SDS011;68844;53.128;17.958;2023-04-06T10:56:51;3.50;;;2.50;;
79373;SDS011;68844;53.128;17.958;2023-04-06T10:59:21;5.00;;;2.60;;
79373;SDS011;68844;53.128;17.958;2023-04-06T11:01:48;4.30;;;2.80;;
79373;SDS011;68844;53.128;17.958;2023-04-06T11:04:15;3.30;;;2.20;;
79373;SDS011;68844;53.128;17.958;2023-04-06T11:06:47;2.60;;;2.20;;
79373;SDS011;68844;53.128;17.958;2023-04-06T11:09:49;1.90;;;1.30;;
79373;SDS011;68844;53.128;17.958;2023-04-06T11:12:09;2.90;;;2.50;;
79373;SDS011;68844;53.128;17.958;2023-04-06T11:14:56;2.80;;;2.40;;
79373;SDS011;68844;53.128;17.958;2023-04-06T11:17:31;3.30;;;2.80;;
79373;SDS011;68844;53.128;17.958;2023-04-06T11:19:59;3.80;;;2.40;;
79373;SDS011;68844;53.128;17.958;2023-04-06T11:22:26;2.70;;;2.00;;
79373;SDS011;68844;53.128;17.958;2023-04-06T11:24:53;5.00;;;2.90;;
79373;SDS011;68844;53.128;17.958;2023-04-06T11:27:31;4.10;;;2.60;;
79373;SDS011;68844;53.128;17.958;2023-04-06T11:30:00;4.70;;;3.10;;
79373;SDS011;68844;53.128;17.958;2023-04-06T11:32:27;6.90;;;2.80;;
79373;SDS011;68844;53.128;17.958;2023-04-06T11:34:54;2.30;;;1.80;;
79373;SDS011;68844;53.128;17.958;2023-04-06T11:37:21;4.30;;;2.80;;
79373;SDS011;68844;53.128;17.958;2023-04-06T11:39:48;2.50;;;2.00;;
79373;SDS011;68844;53.128;17.958;2023-04-06T11:44:54;2.40;;;1.60;;
79373;SDS011;68844;53.128;17.958;2023-04-06T11:47:56;3.40;;;2.30;;
79373;SDS011;68844;53.128;17.958;2023-04-06T11:50:31;4.10;;;2.50;;
79373;SDS011;68844;53.128;17.958;2023-04-06T11:53:00;3.20;;;1.90;;
79373;SDS011;68844;53.128;17.958;2023-04-06T11:55:28;3.60;;;2.50;;
79373;SDS011;68844;53.128;17.958;2023-04-06T11:57:54;3.90;;;2.80;;
79373;SDS011;68844;53.128;17.958;2023-04-06T12:00:21;5.40;;;3.00;;
79373;SDS011;68844;53.128;17.958;2023-04-06T12:02:48;4.10;;;2.60;;
79373;SDS011;68844;53.128;17.958;2023-04-06T12:05:15;2.50;;;1.90;;
79373;SDS011;68844;53.128;17.958;2023-04-06T12:07:42;5.90;;;1.90;;
79373;SDS011;68844;53.128;17.958;2023-04-06T12:10:09;3.10;;;1.70;;
79373;SDS011;68844;53.128;17.958;2023-04-06T12:12:35;3.60;;;2.40;;
79373;SDS011;68844;53.128;17.958;2023-04-06T12:15:02;2.10;;;1.60;;
79373;SDS011;68844;53.128;17.958;2023-04-06T12:17:29;2.50;;;2.00;;
79373;SDS011;68844;53.128;17.958;2023-04-06T12:19:56;3.90;;;1.60;;
79373;SDS011;68844;53.128;17.958;2023-04-06T12:22:22;4.30;;;2.40;;
79373;SDS011;68844;53.128;17.958;2023-04-06T12:24:49;3.30;;;1.70;;
79373;SDS011;68844;53.128;17.958;2023-04-06T12:27:16;3.40;;;2.70;;
79373;SDS011;68844;53.128;17.958;2023-04-06T12:29:42;4.30;;;2.70;;
79373;SDS011;68844;53.128;17.958;2023-04-06T12:32:09;4.00;;;1.90;;
79373;SDS011;68844;53.128;17.958;2023-04-06T12:34:36;4.10;;;2.50;;
79373;SDS011;68844;53.128;17.958;2023-04-06T12:37:04;5.70;;;2.30;;
79373;SDS011;68844;53.128;17.958;2023-04-06T12:39:30;3.10;;;1.70;;
79373;SDS011;68844;53.128;17.958;2023-04-06T12:41:57;4.90;;;2.50;;
79373;SDS011;68844;53.128;17.958;2023-04-06T12:44:24;2.00;;;1.70;;
79373;SDS011;68844;53.128;17.958;2023-04-06T12:46:51;2.60;;;1.90;;
79373;SDS011;68844;53.128;17.958;2023-04-06T12:49:18;3.40;;;1.90;;
79373;SDS011;68844;53.128;17.958;2023-04-06T12:51:45;2.70;;;1.80;;
79373;SDS011;68844;53.128;17.958;2023-04-06T12:54:12;5.20;;;2.50;;
79373;SDS011;68844;53.128;17.958;2023-04-06T12:56:39;3.30;;;2.10;;
79373;SDS011;68844;53.128;17.958;2023-04-06T12:59:06;2.60;;;1.80;;
79373;SDS011;68844;53.128;17.958;2023-04-06T13:01:33;3.80;;;2.30;;
79373;SDS011;68844;53.128;17.958;2023-04-06T13:04:00;4.40;;;2.00;;
79373;SDS011;68844;53.128;17.958;2023-04-06T13:06:27;4.20;;;1.90;;
79373;SDS011;68844;53.128;17.958;2023-04-06T13:08:54;5.80;;;2.40;;
79373;SDS011;68844;53.128;17.958;2023-04-06T13:11:21;3.10;;;1.80;;
79373;SDS011;68844;53.128;17.958;2023-04-06T13:13:50;3.80;;;2.10;;
79373;SDS011;68844;53.128;17.958;2023-04-06T13:16:16;3.40;;;2.50;;
79373;SDS011;68844;53.128;17.958;2023-04-06T13:18:43;3.60;;;2.20;;
79373;SDS011;68844;53.128;17.958;2023-04-06T13:21:13;2.40;;;0.90;;
79373;SDS011;68844;53.128;17.958;2023-04-06T13:23:41;3.80;;;3.00;;
79373;SDS011;68844;53.128;17.958;2023-04-06T13:26:08;3.90;;;2.30;;
79373;SDS011;68844;53.128;17.958;2023-04-06T13:28:35;4.10;;;2.20;;
79373;SDS011;68844;53.128;17.958;2023-04-06T13:31:08;4.10;;;2.10;;
79373;SDS011;68844;53.128;17.958;2023-04-06T13:33:39;3.60;;;2.20;;
79373;SDS011;68844;53.128;17.958;2023-04-06T13:36:07;6.50;;;2.90;;
79373;SDS011;68844;53.128;17.958;2023-04-06T13:38:34;3.90;;;2.10;;
79373;SDS011;68844;53.128;17.958;2023-04-06T13:41:00;5.00;;;2.80;;
79373;SDS011;68844;53.128;17.958;2023-04-06T13:43:27;3.20;;;1.90;;
79373;SDS011;68844;53.128;17.958;2023-04-06T13:45:54;7.40;;;3.30;;
79373;SDS011;68844;53.128;17.958;2023-04-06T13:48:22;6.00;;;3.00;;
79373;SDS011;68844;53.128;17.958;2023-04-06T13:50:49;2.10;;;1.40;;
79373;SDS011;68844;53.128;17.958;2023-04-06T13:53:16;3.30;;;2.00;;
79373;SDS011;68844;53.128;17.958;2023-04-06T13:55:43;8.10;;;3.60;;
79373;SDS011;68844;53.128;17.958;2023-04-06T13:58:11;3.90;;;2.30;;
79373;SDS011;68844;53.128;17.958;2023-04-06T14:00:38;3.50;;;1.80;;
79373;SDS011;68844;53.128;17.958;2023-04-06T14:03:05;5.90;;;3.60;;
79373;SDS011;68844;53.128;17.958;2023-04-06T14:05:32;4.20;;;2.40;;
79373;SDS011;68844;53.128;17.958;2023-04-06T14:07:59;5.30;;;1.90;;
79373;SDS011;68844;53.128;17.958;2023-04-06T14:10:26;2.30;;;1.70;;
79373;SDS011;68844;53.128;17.958;2023-04-06T14:12:53;5.50;;;3.30;;
79373;SDS011;68844;53.128;17.958;2023-04-06T14:15:20;2.10;;;1.30;;
79373;SDS011;68844;53.128;17.958;2023-04-06T14:17:48;3.10;;;2.00;;
79373;SDS011;68844;53.128;17.958;2023-04-06T14:20:15;3.80;;;2.00;;
79373;SDS011;68844;53.128;17.958;2023-04-06T14:22:41;4.10;;;3.40;;
79373;SDS011;68844;53.128;17.958;2023-04-06T14:25:11;3.60;;;2.20;;
79373;SDS011;68844;53.128;17.958;2023-04-06T14:27:38;3.50;;;2.40;;
79373;SDS011;68844;53.128;17.958;2023-04-06T14:30:05;5.10;;;3.10;;
79373;SDS011;68844;53.128;17.958;2023-04-06T14:32:33;3.00;;;2.70;;
79373;SDS011;68844;53.128;17.958;2023-04-06T14:34:59;4.50;;;2.60;;
79373;SDS011;68844;53.128;17.958;2023-04-06T14:37:26;4.70;;;2.70;;
79373;SDS011;68844;53.128;17.958;2023-04-06T14:39:53;5.80;;;2.80;;
79373;SDS011;68844;53.128;17.958;2023-04-06T14:42:20;4.80;;;3.30;;
79373;SDS011;68844;53.128;17.958;2023-04-06T14:44:46;3.30;;;1.50;;
79373;SDS011;68844;53.128;17.958;2023-04-06T14:47:14;5.30;;;2.70;;
79373;SDS011;68844;53.128;17.958;2023-04-06T14:49:47;7.20;;;3.60;;
79373;SDS011;68844;53.128;17.958;2023-04-06T14:52:15;4.40;;;2.60;;
79373;SDS011;68844;53.128;17.958;2023-04-06T14:54:42;4.00;;;2.90;;
79373;SDS011;68844;53.128;17.958;2023-04-06T14:57:09;5.50;;;3.20;;
79373;SDS011;68844;53.128;17.958;2023-04-06T14:59:36;5.00;;;3.10;;
79373;SDS011;68844;53.128;17.958;2023-04-06T15:02:03;4.90;;;3.40;;
79373;SDS011;68844;53.128;17.958;2023-04-06T15:04:29;4.40;;;3.00;;